Rotterdam Express — DMRX — position and weather

sailwx.info

Track history (hours):
 
Tides and Currents Weather Stations Pressure Air Temp Water Temp Dewpoint Dewpoint Depression Visibility Wind Speed Wind Dir Waves Ship Positions

Rotterdam Express

Last reported at 2017-Jan-18 09:33 UTC. Time now 2017-Jan-18 10:11 UTC.
Position N 38°40' W 009°18'.

Length 294 m; beam 32.2 m; draft 13.6 m.

Type: Ship. MMSI: 211335760.

Date/timePositionNaut miles runAvg speedWind from/ knotsBaromVisibWave heightAir tempDewpointWater temp
2017-Jan-18 09:33N 38°40' W 009°18'7 6.5
2017-Jan-18 08:29N 38°42' W 009°10'0 0.0
2017-Jan-18 07:33N 38°42' W 009°10'0 0.0
2017-Jan-18 05:17N 38°42' W 009°10'0 0.0
2017-Jan-18 04:30N 38°42' W 009°10'0 0.0
2017-Jan-18 03:32N 38°42' W 009°10'0 0.0
2017-Jan-18 02:32N 38°42' W 009°10'0 0.0
2017-Jan-18 01:32N 38°42' W 009°10'0 0.0
2017-Jan-18 00:32N 38°42' W 009°10'0 0.0
2017-Jan-17 23:30N 38°42' W 009°10'0 0.0
2017-Jan-17 22:33N 38°42' W 009°10'0 0.0
2017-Jan-17 21:22N 38°42' W 009°10'0 0.0
2017-Jan-17 20:30N 38°42' W 009°10'0 0.0
2017-Jan-17 19:32N 38°42' W 009°10'0 0.0
2017-Jan-17 18:08N 38°42' W 009°10'0 0.0
2017-Jan-17 17:32N 38°42' W 009°10'0 0.0
2017-Jan-17 16:28N 38°42' W 009°10'0 0.0
2017-Jan-17 15:29N 38°42' W 009°10'0 0.0
2017-Jan-17 14:13N 38°42' W 009°10'0 0.0
2017-Jan-17 13:33N 38°42' W 009°10'8 7.5
2017-Jan-17 12:33N 38°40' W 009°19'8 8.2
2017-Jan-17 11:33N 38°37' W 009°29'2 1.8
2017-Jan-17 10:33N 38°36' W 009°31'1 0.8
2017-Jan-17 09:33N 38°37' W 009°31'1 0.7
2017-Jan-17 08:33N 38°37' W 009°31'0 0.4
2017-Jan-17 07:33N 38°38' W 009°31'4 4.2
2017-Jan-17 06:33N 38°36' W 009°36'7 7.0
2017-Jan-17 05:33N 38°35' W 009°45'8 7.8
2017-Jan-17 04:33N 38°34' W 009°55'1010.2
2017-Jan-17 03:33N 38°33' W 010°08'1514.4
2017-Jan-17 02:32N 38°33' W 010°27'1414.4
2017-Jan-17 01:33N 38°32' W 010°45'1614.6
2017-Jan-17 00:26N 38°31' W 011°06'59215.4
2017-Jan-15 10:04N 37°01' W 023°27'815.5
2017-Jan-15 09:33N 36°60' W 023°36'1515.2
2017-Jan-15 08:33N 36°56' W 023°55'1515.3
2017-Jan-15 07:33N 36°53' W 024°13'1515.2
2017-Jan-15 06:33N 36°49' W 024°32'1615.5
2017-Jan-15 05:33N 36°46' W 024°51'1515.3
2017-Jan-15 04:34N 36°42' W 025°09'1515.1
2017-Jan-15 03:33N 36°39' W 025°28'1515.2
2017-Jan-15 02:33N 36°35' W 025°46'1515.4
2017-Jan-15 01:33N 36°32' W 026°05'1915.3
2017-Jan-15 00:17N 36°27' W 026°28'  
Track history (hours):
 
Tides and Currents Weather Stations Pressure Air Temp Water Temp Dewpoint Dewpoint Depression Visibility Wind Speed Wind Dir Waves Ship Positions

Rotterdam Express

Last reported at 2017-Jan-18 09:33 UTC. Time now 2017-Jan-18 10:11 UTC.
Position N 38°40' W 009°18'.

Length 294 m; beam 32.2 m; draft 13.6 m.

Type: Ship. MMSI: 211335760.

Date/timePositionNaut miles runAvg speedWind from/ knotsBaromVisibWave heightAir tempDewpointWater temp
2017-Jan-18 09:33N 38°40' W 009°18'7 6.5
2017-Jan-18 08:29N 38°42' W 009°10'0 0.0
2017-Jan-18 07:33N 38°42' W 009°10'0 0.0
2017-Jan-18 05:17N 38°42' W 009°10'0 0.0
2017-Jan-18 04:30N 38°42' W 009°10'0 0.0
2017-Jan-18 03:32N 38°42' W 009°10'0 0.0
2017-Jan-18 02:32N 38°42' W 009°10'0 0.0
2017-Jan-18 01:32N 38°42' W 009°10'0 0.0
2017-Jan-18 00:32N 38°42' W 009°10'0 0.0
2017-Jan-17 23:30N 38°42' W 009°10'0 0.0
2017-Jan-17 22:33N 38°42' W 009°10'0 0.0
2017-Jan-17 21:22N 38°42' W 009°10'0 0.0
2017-Jan-17 20:30N 38°42' W 009°10'0 0.0
2017-Jan-17 19:32N 38°42' W 009°10'0 0.0
2017-Jan-17 18:08N 38°42' W 009°10'0 0.0
2017-Jan-17 17:32N 38°42' W 009°10'0 0.0
2017-Jan-17 16:28N 38°42' W 009°10'0 0.0
2017-Jan-17 15:29N 38°42' W 009°10'0 0.0
2017-Jan-17 14:13N 38°42' W 009°10'0 0.0
2017-Jan-17 13:33N 38°42' W 009°10'8 7.5
2017-Jan-17 12:33N 38°40' W 009°19'8 8.2
2017-Jan-17 11:33N 38°37' W 009°29'2 1.8
2017-Jan-17 10:33N 38°36' W 009°31'1 0.8
2017-Jan-17 09:33N 38°37' W 009°31'1 0.7
2017-Jan-17 08:33N 38°37' W 009°31'0 0.4
2017-Jan-17 07:33N 38°38' W 009°31'4 4.2
2017-Jan-17 06:33N 38°36' W 009°36'7 7.0
2017-Jan-17 05:33N 38°35' W 009°45'8 7.8
2017-Jan-17 04:33N 38°34' W 009°55'1010.2
2017-Jan-17 03:33N 38°33' W 010°08'1514.4
2017-Jan-17 02:32N 38°33' W 010°27'1414.4
2017-Jan-17 01:33N 38°32' W 010°45'1614.6
2017-Jan-17 00:26N 38°31' W 011°06'59215.4
2017-Jan-15 10:04N 37°01' W 023°27'815.5
2017-Jan-15 09:33N 36°60' W 023°36'1515.2
2017-Jan-15 08:33N 36°56' W 023°55'1515.3
2017-Jan-15 07:33N 36°53' W 024°13'1515.2
2017-Jan-15 06:33N 36°49' W 024°32'1615.5
2017-Jan-15 05:33N 36°46' W 024°51'1515.3
2017-Jan-15 04:34N 36°42' W 025°09'1515.1
2017-Jan-15 03:33N 36°39' W 025°28'1515.2
2017-Jan-15 02:33N 36°35' W 025°46'1515.4
2017-Jan-15 01:33N 36°32' W 026°05'1915.3
2017-Jan-15 00:17N 36°27' W 026°28'  

Dump ship's entire track history